VVNBVVCI

Guest
Details From VVNB - Hanoi Noibai Intl
To VVCI - HAIPHONG CATBI
Flight Number -
Tags generated
Created
Modified
Stats Distance 57 nm / 106 km
Max Altitude 600 ft / 183 m
Waypoints 3
Social Downloads 6
Likes 0
Share VATSIM

Download

Looking for another format? Having issues loading an existing format? Contact us
Advertisement - Login to hide

Notes

Basic altitude profile: - Ascent Rate: 2500ft/min - Ascent Speed: 250kts - Cruise Altitude: 35000ft - Cruise Speed: 420kts - Descent Rate: 1500ft/min - Descent Speed: 250kts Options: - Use NATs: yes - Use PACOTS: yes - Use low airways: yes - Use high airways: yes

Route

VVNB NOB VVCI

ID Type Via Altitude (ft/m) Position (lat/lon) Dist (leg/tot) Name
O VVNB APT - 0 / 0 21.21974 / 105.80377 - / 0 nm Hanoi Noibai Intl
NOB VOR - 600 / 183 21.21302 / 105.83494 1 / 1 nm NOIBAI VOR-DME
O VVCI APT - 0 / 0 20.81939 / 106.72499 55 / 57 nm HAIPHONG CATBI

Altitude Profile

Advertisement - Login to hide

VVNB

Details ICAO VVNB (HAN)
Name Hanoi Noibai Intl
Region Vietnam
Timezone Asia/Ho_Chi_Minh (UTC+7.0)
Stats Elevation 39 ft / 12 m (AMSL)
Location 21.220300° 105.806000°
Runways 2
Magnetic Variation 1.504° W

METAR

VVNB 150530Z 35003KT 310V060 9999 BKN026 18/11 Q1023 NOSIG

Decode

TAF

TAF VVNB 150500Z 1506/1606 02006KT 9999 SCT025

Decode

Departure Runways

ID Width Length Bearing (true/mag) Surface Threshold Overrun Markings Lighting
11L 148 ft / 45 m 10,506 ft / 3,202 m 107.22° / 108.72° ASPHALT 0 ft / 0 m 318 ft / 97 m PREC-APP EDGE THRESHOLD ALSF-I
11R 148 ft / 45 m 12,457 ft / 3,797 m 107.23° / 108.73° CONCRETE 0 ft / 0 m 325 ft / 99 m PREC-APP CENTERLINE EDGE THRESHOLD ALSF-II
29L 148 ft / 45 m 12,457 ft / 3,797 m 287.24° / 288.74° CONCRETE 0 ft / 0 m 325 ft / 99 m PREC-APP CENTERLINE EDGE THRESHOLD SALS TDZ
29R 148 ft / 45 m 10,506 ft / 3,202 m 287.23° / 288.74° ASPHALT 0 ft / 0 m 322 ft / 98 m PREC-APP EDGE THRESHOLD

VVCI

Details ICAO VVCI (HPH)
Name HAIPHONG CATBI
Region Vietnam
Timezone Asia/Ho_Chi_Minh (UTC+7.0)
Stats Elevation 6 ft / 2 m (AMSL)
Location 20.819400° 106.725000°
Runways 1
Magnetic Variation 1.583° W

METAR

VVCI 150530Z 02003KT 9999 FEW027 BKN033 20/14 Q1022 NOSIG

Decode

TAF

TAF VVCI 150500Z 1506/1606 02005KT 9999 SCT025= TAF VVCR 150500Z 1506/1606 06016KT 9999 SCT010 BKN040 TEMPO 1506/1509 07015G28KT 3000 SHRA BKN008 FEW015CB BKN030 TEMPO 1509/1514 5000 RA BKN012 BKN030

Decode

Destination Runways

ID Width Length Bearing (true/mag) Surface Threshold Overrun Markings Lighting
07 164 ft / 50 m 7,879 ft / 2,402 m 72.18° / 73.76° ASPHALT 0 ft / 0 m 0 ft / 0 m APP SSALR
25 164 ft / 50 m 7,879 ft / 2,402 m 252.19° / 253.77° ASPHALT 0 ft / 0 m 0 ft / 0 m APP REIL-OMNI

Popular Alternatives